sensor_id;sensor_type;location;lat;lon;timestamp;P1;durP1;ratioP1;P2;durP2;ratioP2
2386;SDS011;49473;50.772;8.768;2024-03-08T00:00:03;22.00;;;19.60;;
2386;SDS011;49473;50.772;8.768;2024-03-08T00:02:35;23.60;;;19.57;;
2386;SDS011;49473;50.772;8.768;2024-03-08T00:05:02;24.10;;;19.60;;
2386;SDS011;49473;50.772;8.768;2024-03-08T00:07:29;22.97;;;19.63;;
2386;SDS011;49473;50.772;8.768;2024-03-08T00:09:57;22.57;;;18.77;;
2386;SDS011;49473;50.772;8.768;2024-03-08T00:12:24;19.83;;;17.60;;
2386;SDS011;49473;50.772;8.768;2024-03-08T00:14:51;26.67;;;20.57;;
2386;SDS011;49473;50.772;8.768;2024-03-08T00:17:19;25.70;;;20.97;;
2386;SDS011;49473;50.772;8.768;2024-03-08T00:19:47;24.53;;;20.00;;
2386;SDS011;49473;50.772;8.768;2024-03-08T00:22:14;23.97;;;18.90;;
2386;SDS011;49473;50.772;8.768;2024-03-08T00:24:41;24.03;;;19.60;;
2386;SDS011;49473;50.772;8.768;2024-03-08T00:27:09;25.07;;;19.03;;
2386;SDS011;49473;50.772;8.768;2024-03-08T00:29:36;24.13;;;19.97;;
2386;SDS011;49473;50.772;8.768;2024-03-08T00:32:04;25.40;;;20.50;;
2386;SDS011;49473;50.772;8.768;2024-03-08T00:34:32;24.83;;;20.40;;
2386;SDS011;49473;50.772;8.768;2024-03-08T00:37:01;24.03;;;19.67;;
2386;SDS011;49473;50.772;8.768;2024-03-08T00:39:28;21.97;;;19.40;;
2386;SDS011;49473;50.772;8.768;2024-03-08T00:41:55;27.63;;;20.77;;
2386;SDS011;49473;50.772;8.768;2024-03-08T00:44:23;24.33;;;19.47;;
2386;SDS011;49473;50.772;8.768;2024-03-08T00:46:50;23.27;;;19.33;;
2386;SDS011;49473;50.772;8.768;2024-03-08T00:49:16;25.27;;;20.70;;
2386;SDS011;49473;50.772;8.768;2024-03-08T00:51:43;26.43;;;20.20;;
2386;SDS011;49473;50.772;8.768;2024-03-08T00:54:10;23.47;;;19.27;;
2386;SDS011;49473;50.772;8.768;2024-03-08T00:56:36;24.67;;;20.67;;
2386;SDS011;49473;50.772;8.768;2024-03-08T00:59:04;22.03;;;19.27;;
2386;SDS011;49473;50.772;8.768;2024-03-08T01:01:32;28.33;;;20.27;;
2386;SDS011;49473;50.772;8.768;2024-03-08T01:03:59;27.67;;;21.30;;
2386;SDS011;49473;50.772;8.768;2024-03-08T01:06:26;29.37;;;21.70;;
2386;SDS011;49473;50.772;8.768;2024-03-08T01:08:53;26.40;;;21.30;;
2386;SDS011;49473;50.772;8.768;2024-03-08T01:11:19;24.37;;;19.93;;
2386;SDS011;49473;50.772;8.768;2024-03-08T01:13:46;24.23;;;19.37;;
2386;SDS011;49473;50.772;8.768;2024-03-08T01:16:13;25.43;;;20.73;;
2386;SDS011;49473;50.772;8.768;2024-03-08T01:18:41;22.07;;;19.70;;
2386;SDS011;49473;50.772;8.768;2024-03-08T01:21:08;23.30;;;19.90;;
2386;SDS011;49473;50.772;8.768;2024-03-08T01:23:34;21.83;;;19.47;;
2386;SDS011;49473;50.772;8.768;2024-03-08T01:26:01;24.27;;;19.70;;
2386;SDS011;49473;50.772;8.768;2024-03-08T01:28:28;23.73;;;20.37;;
2386;SDS011;49473;50.772;8.768;2024-03-08T01:30:55;23.60;;;20.43;;
2386;SDS011;49473;50.772;8.768;2024-03-08T01:33:22;24.80;;;21.83;;
2386;SDS011;49473;50.772;8.768;2024-03-08T01:35:52;22.43;;;20.03;;
2386;SDS011;49473;50.772;8.768;2024-03-08T01:38:19;24.43;;;20.53;;
2386;SDS011;49473;50.772;8.768;2024-03-08T01:40:46;26.13;;;21.37;;
2386;SDS011;49473;50.772;8.768;2024-03-08T01:43:19;26.90;;;21.17;;
2386;SDS011;49473;50.772;8.768;2024-03-08T01:45:47;24.00;;;20.17;;
2386;SDS011;49473;50.772;8.768;2024-03-08T01:48:14;23.03;;;20.07;;
2386;SDS011;49473;50.772;8.768;2024-03-08T01:50:42;30.00;;;21.87;;
2386;SDS011;49473;50.772;8.768;2024-03-08T01:53:10;24.33;;;20.00;;
2386;SDS011;49473;50.772;8.768;2024-03-08T01:55:38;26.60;;;21.90;;
2386;SDS011;49473;50.772;8.768;2024-03-08T01:58:05;26.83;;;20.57;;
2386;SDS011;49473;50.772;8.768;2024-03-08T02:00:32;24.43;;;20.13;;
2386;SDS011;49473;50.772;8.768;2024-03-08T02:03:02;26.00;;;20.77;;
2386;SDS011;49473;50.772;8.768;2024-03-08T02:05:29;27.17;;;21.10;;
2386;SDS011;49473;50.772;8.768;2024-03-08T02:07:56;21.30;;;18.63;;
2386;SDS011;49473;50.772;8.768;2024-03-08T02:10:24;22.33;;;19.07;;
2386;SDS011;49473;50.772;8.768;2024-03-08T02:12:51;28.10;;;20.77;;
2386;SDS011;49473;50.772;8.768;2024-03-08T02:15:17;25.50;;;19.50;;
2386;SDS011;49473;50.772;8.768;2024-03-08T02:17:44;23.87;;;18.57;;
2386;SDS011;49473;50.772;8.768;2024-03-08T02:20:11;24.87;;;21.00;;
2386;SDS011;49473;50.772;8.768;2024-03-08T02:22:39;28.27;;;20.37;;
2386;SDS011;49473;50.772;8.768;2024-03-08T02:25:06;23.23;;;19.33;;
2386;SDS011;49473;50.772;8.768;2024-03-08T02:27:35;34.13;;;22.03;;
2386;SDS011;49473;50.772;8.768;2024-03-08T02:30:02;26.27;;;19.80;;
2386;SDS011;49473;50.772;8.768;2024-03-08T02:32:30;27.77;;;21.47;;
2386;SDS011;49473;50.772;8.768;2024-03-08T02:34:57;27.70;;;19.83;;
2386;SDS011;49473;50.772;8.768;2024-03-08T02:37:25;27.07;;;20.87;;
2386;SDS011;49473;50.772;8.768;2024-03-08T02:39:54;27.67;;;20.90;;
2386;SDS011;49473;50.772;8.768;2024-03-08T02:42:21;29.57;;;21.93;;
2386;SDS011;49473;50.772;8.768;2024-03-08T02:44:48;26.37;;;20.60;;
2386;SDS011;49473;50.772;8.768;2024-03-08T02:47:14;28.37;;;20.27;;
2386;SDS011;49473;50.772;8.768;2024-03-08T02:49:41;30.40;;;21.57;;
2386;SDS011;49473;50.772;8.768;2024-03-08T02:52:08;29.77;;;21.10;;
2386;SDS011;49473;50.772;8.768;2024-03-08T02:54:36;24.77;;;20.00;;
2386;SDS011;49473;50.772;8.768;2024-03-08T02:57:04;30.60;;;21.33;;
2386;SDS011;49473;50.772;8.768;2024-03-08T02:59:32;27.63;;;20.60;;
2386;SDS011;49473;50.772;8.768;2024-03-08T03:01:59;25.70;;;21.60;;
2386;SDS011;49473;50.772;8.768;2024-03-08T03:04:26;27.20;;;22.00;;
2386;SDS011;49473;50.772;8.768;2024-03-08T03:06:52;32.90;;;21.43;;
2386;SDS011;49473;50.772;8.768;2024-03-08T03:09:19;27.40;;;21.10;;
2386;SDS011;49473;50.772;8.768;2024-03-08T03:11:52;32.10;;;22.27;;
2386;SDS011;49473;50.772;8.768;2024-03-08T03:14:21;32.13;;;21.03;;
2386;SDS011;49473;50.772;8.768;2024-03-08T03:16:47;29.00;;;21.63;;
2386;SDS011;49473;50.772;8.768;2024-03-08T03:19:15;27.90;;;21.63;;
2386;SDS011;49473;50.772;8.768;2024-03-08T03:21:41;26.30;;;21.30;;
2386;SDS011;49473;50.772;8.768;2024-03-08T03:24:09;28.50;;;23.10;;
2386;SDS011;49473;50.772;8.768;2024-03-08T03:26:36;25.70;;;21.07;;
2386;SDS011;49473;50.772;8.768;2024-03-08T03:29:04;26.10;;;21.90;;
2386;SDS011;49473;50.772;8.768;2024-03-08T03:31:35;28.83;;;21.73;;
2386;SDS011;49473;50.772;8.768;2024-03-08T03:34:02;31.63;;;22.73;;
2386;SDS011;49473;50.772;8.768;2024-03-08T03:36:29;25.23;;;20.70;;
2386;SDS011;49473;50.772;8.768;2024-03-08T03:38:56;32.97;;;21.93;;
2386;SDS011;49473;50.772;8.768;2024-03-08T03:41:32;28.00;;;21.60;;
2386;SDS011;49473;50.772;8.768;2024-03-08T03:43:57;28.17;;;22.07;;
2386;SDS011;49473;50.772;8.768;2024-03-08T03:46:24;28.20;;;21.07;;
2386;SDS011;49473;50.772;8.768;2024-03-08T03:48:53;30.23;;;22.50;;
2386;SDS011;49473;50.772;8.768;2024-03-08T03:51:20;33.40;;;23.70;;
2386;SDS011;49473;50.772;8.768;2024-03-08T03:53:47;33.67;;;23.50;;
2386;SDS011;49473;50.772;8.768;2024-03-08T03:56:14;26.23;;;22.10;;
2386;SDS011;49473;50.772;8.768;2024-03-08T03:58:40;31.17;;;23.90;;
2386;SDS011;49473;50.772;8.768;2024-03-08T04:01:07;28.63;;;20.50;;
2386;SDS011;49473;50.772;8.768;2024-03-08T04:03:36;30.00;;;21.33;;
2386;SDS011;49473;50.772;8.768;2024-03-08T04:06:05;31.77;;;23.20;;
2386;SDS011;49473;50.772;8.768;2024-03-08T04:08:31;27.30;;;22.03;;
2386;SDS011;49473;50.772;8.768;2024-03-08T04:10:59;27.37;;;22.87;;
2386;SDS011;49473;50.772;8.768;2024-03-08T04:13:26;25.47;;;21.17;;
2386;SDS011;49473;50.772;8.768;2024-03-08T04:15:53;27.27;;;21.87;;
2386;SDS011;49473;50.772;8.768;2024-03-08T04:18:20;29.57;;;22.70;;
2386;SDS011;49473;50.772;8.768;2024-03-08T04:20:46;27.47;;;21.47;;
2386;SDS011;49473;50.772;8.768;2024-03-08T04:23:14;29.17;;;22.27;;
2386;SDS011;49473;50.772;8.768;2024-03-08T04:25:42;28.83;;;22.60;;
2386;SDS011;49473;50.772;8.768;2024-03-08T04:28:09;31.43;;;22.73;;
2386;SDS011;49473;50.772;8.768;2024-03-08T04:30:36;25.70;;;21.47;;
2386;SDS011;49473;50.772;8.768;2024-03-08T04:33:04;28.10;;;21.67;;
2386;SDS011;49473;50.772;8.768;2024-03-08T04:35:31;33.40;;;22.27;;
2386;SDS011;49473;50.772;8.768;2024-03-08T04:37:57;26.23;;;21.47;;
2386;SDS011;49473;50.772;8.768;2024-03-08T04:40:25;31.20;;;23.43;;
2386;SDS011;49473;50.772;8.768;2024-03-08T04:42:52;28.10;;;22.80;;
2386;SDS011;49473;50.772;8.768;2024-03-08T04:45:19;28.13;;;22.27;;
2386;SDS011;49473;50.772;8.768;2024-03-08T04:47:46;31.93;;;23.17;;
2386;SDS011;49473;50.772;8.768;2024-03-08T04:50:13;28.47;;;22.00;;
2386;SDS011;49473;50.772;8.768;2024-03-08T04:52:40;29.63;;;21.87;;
2386;SDS011;49473;50.772;8.768;2024-03-08T04:55:06;28.20;;;23.00;;
2386;SDS011;49473;50.772;8.768;2024-03-08T04:57:35;27.50;;;22.00;;
2386;SDS011;49473;50.772;8.768;2024-03-08T05:00:03;34.30;;;25.47;;
2386;SDS011;49473;50.772;8.768;2024-03-08T05:02:35;29.33;;;21.80;;
2386;SDS011;49473;50.772;8.768;2024-03-08T05:05:03;29.73;;;22.30;;
2386;SDS011;49473;50.772;8.768;2024-03-08T05:07:32;29.30;;;21.90;;
2386;SDS011;49473;50.772;8.768;2024-03-08T05:09:58;32.10;;;23.27;;
2386;SDS011;49473;50.772;8.768;2024-03-08T05:12:25;29.70;;;22.43;;
2386;SDS011;49473;50.772;8.768;2024-03-08T05:14:53;32.37;;;23.53;;
2386;SDS011;49473;50.772;8.768;2024-03-08T05:17:20;29.60;;;22.17;;
2386;SDS011;49473;50.772;8.768;2024-03-08T05:19:49;30.17;;;21.80;;
2386;SDS011;49473;50.772;8.768;2024-03-08T05:22:16;32.73;;;22.67;;
2386;SDS011;49473;50.772;8.768;2024-03-08T05:24:43;35.07;;;23.50;;
2386;SDS011;49473;50.772;8.768;2024-03-08T05:27:10;27.70;;;23.30;;
2386;SDS011;49473;50.772;8.768;2024-03-08T05:29:38;31.73;;;23.97;;
2386;SDS011;49473;50.772;8.768;2024-03-08T05:32:06;32.67;;;22.97;;
2386;SDS011;49473;50.772;8.768;2024-03-08T05:34:33;34.90;;;24.37;;
2386;SDS011;49473;50.772;8.768;2024-03-08T05:36:59;31.30;;;22.40;;
2386;SDS011;49473;50.772;8.768;2024-03-08T05:39:26;29.07;;;23.20;;
2386;SDS011;49473;50.772;8.768;2024-03-08T05:41:53;33.20;;;22.93;;
2386;SDS011;49473;50.772;8.768;2024-03-08T05:44:21;30.90;;;22.70;;
2386;SDS011;49473;50.772;8.768;2024-03-08T05:46:48;27.37;;;21.20;;
2386;SDS011;49473;50.772;8.768;2024-03-08T05:49:17;32.47;;;22.60;;
2386;SDS011;49473;50.772;8.768;2024-03-08T05:51:43;31.80;;;23.43;;
2386;SDS011;49473;50.772;8.768;2024-03-08T05:54:12;30.80;;;23.67;;
2386;SDS011;49473;50.772;8.768;2024-03-08T05:56:40;29.67;;;22.67;;
2386;SDS011;49473;50.772;8.768;2024-03-08T05:59:08;30.70;;;22.87;;
2386;SDS011;49473;50.772;8.768;2024-03-08T06:01:35;28.20;;;21.70;;
2386;SDS011;49473;50.772;8.768;2024-03-08T06:04:03;31.20;;;24.00;;
2386;SDS011;49473;50.772;8.768;2024-03-08T06:06:31;29.53;;;22.03;;
2386;SDS011;49473;50.772;8.768;2024-03-08T06:08:58;33.53;;;22.93;;
2386;SDS011;49473;50.772;8.768;2024-03-08T06:11:25;33.77;;;23.17;;
2386;SDS011;49473;50.772;8.768;2024-03-08T06:13:53;27.77;;;22.07;;
2386;SDS011;49473;50.772;8.768;2024-03-08T06:16:24;30.77;;;23.17;;
2386;SDS011;49473;50.772;8.768;2024-03-08T06:18:54;30.80;;;22.63;;
2386;SDS011;49473;50.772;8.768;2024-03-08T06:21:22;28.57;;;21.20;;
2386;SDS011;49473;50.772;8.768;2024-03-08T06:23:52;29.17;;;22.20;;
2386;SDS011;49473;50.772;8.768;2024-03-08T06:26:20;28.80;;;22.80;;
2386;SDS011;49473;50.772;8.768;2024-03-08T06:28:47;33.17;;;23.60;;
2386;SDS011;49473;50.772;8.768;2024-03-08T06:31:14;31.80;;;22.70;;
2386;SDS011;49473;50.772;8.768;2024-03-08T06:33:41;28.03;;;21.93;;
2386;SDS011;49473;50.772;8.768;2024-03-08T06:36:08;30.57;;;22.47;;
2386;SDS011;49473;50.772;8.768;2024-03-08T06:38:36;29.10;;;22.40;;
2386;SDS011;49473;50.772;8.768;2024-03-08T06:41:08;31.63;;;22.73;;
2386;SDS011;49473;50.772;8.768;2024-03-08T06:43:40;28.60;;;22.07;;
2386;SDS011;49473;50.772;8.768;2024-03-08T06:46:07;28.30;;;21.20;;
2386;SDS011;49473;50.772;8.768;2024-03-08T06:48:33;26.27;;;21.60;;
2386;SDS011;49473;50.772;8.768;2024-03-08T06:51:02;28.23;;;22.70;;
2386;SDS011;49473;50.772;8.768;2024-03-08T06:53:29;30.30;;;22.37;;
2386;SDS011;49473;50.772;8.768;2024-03-08T06:55:55;29.23;;;21.97;;
2386;SDS011;49473;50.772;8.768;2024-03-08T06:58:23;26.67;;;22.17;;
2386;SDS011;49473;50.772;8.768;2024-03-08T07:00:51;26.70;;;22.07;;
2386;SDS011;49473;50.772;8.768;2024-03-08T07:03:18;29.80;;;21.53;;
2386;SDS011;49473;50.772;8.768;2024-03-08T07:05:47;24.40;;;20.23;;
2386;SDS011;49473;50.772;8.768;2024-03-08T07:08:13;24.93;;;20.60;;
2386;SDS011;49473;50.772;8.768;2024-03-08T07:10:41;29.33;;;21.50;;
2386;SDS011;49473;50.772;8.768;2024-03-08T07:13:12;23.40;;;19.57;;
2386;SDS011;49473;50.772;8.768;2024-03-08T07:15:40;24.00;;;21.40;;
2386;SDS011;49473;50.772;8.768;2024-03-08T07:18:07;24.27;;;19.90;;
2386;SDS011;49473;50.772;8.768;2024-03-08T07:20:39;25.77;;;21.13;;
2386;SDS011;49473;50.772;8.768;2024-03-08T07:23:06;25.50;;;21.10;;
2386;SDS011;49473;50.772;8.768;2024-03-08T07:25:33;24.27;;;21.23;;
2386;SDS011;49473;50.772;8.768;2024-03-08T07:28:00;23.53;;;20.33;;
2386;SDS011;49473;50.772;8.768;2024-03-08T07:30:28;24.50;;;19.83;;
2386;SDS011;49473;50.772;8.768;2024-03-08T07:33:13;23.97;;;20.30;;
2386;SDS011;49473;50.772;8.768;2024-03-08T07:35:40;23.00;;;19.20;;
2386;SDS011;49473;50.772;8.768;2024-03-08T07:38:09;21.07;;;18.87;;
2386;SDS011;49473;50.772;8.768;2024-03-08T07:40:39;23.53;;;20.77;;
2386;SDS011;49473;50.772;8.768;2024-03-08T07:43:09;22.37;;;19.97;;
2386;SDS011;49473;50.772;8.768;2024-03-08T07:45:36;25.33;;;20.53;;
2386;SDS011;49473;50.772;8.768;2024-03-08T07:48:03;24.00;;;21.33;;
2386;SDS011;49473;50.772;8.768;2024-03-08T07:50:35;24.80;;;21.37;;
2386;SDS011;49473;50.772;8.768;2024-03-08T07:53:02;25.53;;;20.73;;
2386;SDS011;49473;50.772;8.768;2024-03-08T07:55:31;25.57;;;20.83;;
2386;SDS011;49473;50.772;8.768;2024-03-08T07:57:58;26.97;;;21.00;;
2386;SDS011;49473;50.772;8.768;2024-03-08T08:00:24;26.03;;;23.07;;
2386;SDS011;49473;50.772;8.768;2024-03-08T08:02:52;27.23;;;21.67;;
2386;SDS011;49473;50.772;8.768;2024-03-08T08:05:19;25.07;;;20.80;;
2386;SDS011;49473;50.772;8.768;2024-03-08T08:07:47;25.63;;;20.57;;
2386;SDS011;49473;50.772;8.768;2024-03-08T08:10:15;28.27;;;22.23;;
2386;SDS011;49473;50.772;8.768;2024-03-08T08:12:43;24.93;;;20.43;;
2386;SDS011;49473;50.772;8.768;2024-03-08T08:15:10;23.13;;;20.00;;
2386;SDS011;49473;50.772;8.768;2024-03-08T08:17:37;23.63;;;20.97;;
2386;SDS011;49473;50.772;8.768;2024-03-08T08:20:05;30.43;;;24.97;;
2386;SDS011;49473;50.772;8.768;2024-03-08T08:22:32;23.73;;;21.20;;
2386;SDS011;49473;50.772;8.768;2024-03-08T08:25:00;20.80;;;18.60;;
2386;SDS011;49473;50.772;8.768;2024-03-08T08:27:28;24.73;;;19.90;;
2386;SDS011;49473;50.772;8.768;2024-03-08T08:29:55;23.83;;;20.43;;
2386;SDS011;49473;50.772;8.768;2024-03-08T08:32:22;23.80;;;18.60;;
2386;SDS011;49473;50.772;8.768;2024-03-08T08:34:48;24.17;;;19.70;;
2386;SDS011;49473;50.772;8.768;2024-03-08T08:37:15;22.90;;;20.50;;
2386;SDS011;49473;50.772;8.768;2024-03-08T08:39:42;21.97;;;19.60;;
2386;SDS011;49473;50.772;8.768;2024-03-08T08:42:10;28.57;;;23.63;;
2386;SDS011;49473;50.772;8.768;2024-03-08T08:44:37;22.40;;;20.00;;
2386;SDS011;49473;50.772;8.768;2024-03-08T08:47:04;22.07;;;19.60;;
2386;SDS011;49473;50.772;8.768;2024-03-08T08:49:32;24.20;;;20.40;;
2386;SDS011;49473;50.772;8.768;2024-03-08T08:52:00;21.77;;;19.10;;
2386;SDS011;49473;50.772;8.768;2024-03-08T08:54:28;23.13;;;18.50;;
2386;SDS011;49473;50.772;8.768;2024-03-08T08:56:54;20.90;;;18.60;;
2386;SDS011;49473;50.772;8.768;2024-03-08T08:59:22;21.57;;;19.47;;
2386;SDS011;49473;50.772;8.768;2024-03-08T09:01:50;21.43;;;19.17;;
2386;SDS011;49473;50.772;8.768;2024-03-08T09:04:18;21.47;;;19.20;;
2386;SDS011;49473;50.772;8.768;2024-03-08T09:06:46;24.57;;;21.97;;
2386;SDS011;49473;50.772;8.768;2024-03-08T09:09:13;21.83;;;19.53;;
2386;SDS011;49473;50.772;8.768;2024-03-08T09:11:42;24.27;;;21.87;;
2386;SDS011;49473;50.772;8.768;2024-03-08T09:14:08;22.03;;;19.80;;
2386;SDS011;49473;50.772;8.768;2024-03-08T09:16:38;21.37;;;19.17;;
2386;SDS011;49473;50.772;8.768;2024-03-08T09:19:05;21.97;;;19.77;;
2386;SDS011;49473;50.772;8.768;2024-03-08T09:21:32;21.50;;;19.20;;
2386;SDS011;49473;50.772;8.768;2024-03-08T09:23:59;20.90;;;18.80;;
2386;SDS011;49473;50.772;8.768;2024-03-08T09:26:26;21.00;;;18.97;;
2386;SDS011;49473;50.772;8.768;2024-03-08T09:28:53;21.30;;;19.23;;
2386;SDS011;49473;50.772;8.768;2024-03-08T09:31:21;21.27;;;19.17;;
2386;SDS011;49473;50.772;8.768;2024-03-08T09:33:49;21.53;;;19.43;;
2386;SDS011;49473;50.772;8.768;2024-03-08T09:36:16;20.20;;;18.20;;
2386;SDS011;49473;50.772;8.768;2024-03-08T09:38:43;20.33;;;18.17;;
2386;SDS011;49473;50.772;8.768;2024-03-08T09:41:10;19.80;;;18.00;;
2386;SDS011;49473;50.772;8.768;2024-03-08T09:43:38;19.60;;;17.70;;
2386;SDS011;49473;50.772;8.768;2024-03-08T09:46:04;21.87;;;19.87;;
2386;SDS011;49473;50.772;8.768;2024-03-08T09:48:33;21.03;;;18.83;;
2386;SDS011;49473;50.772;8.768;2024-03-08T09:51:02;19.13;;;17.33;;
2386;SDS011;49473;50.772;8.768;2024-03-08T09:53:29;18.50;;;16.70;;
2386;SDS011;49473;50.772;8.768;2024-03-08T09:55:56;18.27;;;16.57;;
2386;SDS011;49473;50.772;8.768;2024-03-08T09:58:24;20.10;;;18.20;;
2386;SDS011;49473;50.772;8.768;2024-03-08T10:01:14;20.23;;;18.40;;
2386;SDS011;49473;50.772;8.768;2024-03-08T10:03:40;19.17;;;17.33;;
2386;SDS011;49473;50.772;8.768;2024-03-08T10:06:08;18.50;;;16.80;;
2386;SDS011;49473;50.772;8.768;2024-03-08T10:08:35;19.73;;;17.70;;
2386;SDS011;49473;50.772;8.768;2024-03-08T10:11:02;19.10;;;17.33;;
2386;SDS011;49473;50.772;8.768;2024-03-08T10:13:29;20.33;;;18.43;;
2386;SDS011;49473;50.772;8.768;2024-03-08T10:15:57;19.67;;;17.57;;
2386;SDS011;49473;50.772;8.768;2024-03-08T10:18:24;19.90;;;18.00;;
2386;SDS011;49473;50.772;8.768;2024-03-08T10:21:01;19.87;;;18.07;;
2386;SDS011;49473;50.772;8.768;2024-03-08T10:23:31;20.10;;;18.30;;
2386;SDS011;49473;50.772;8.768;2024-03-08T10:26:08;19.57;;;17.80;;
2386;SDS011;49473;50.772;8.768;2024-03-08T10:28:36;18.73;;;16.93;;
2386;SDS011;49473;50.772;8.768;2024-03-08T10:31:03;17.80;;;16.20;;
2386;SDS011;49473;50.772;8.768;2024-03-08T10:33:30;17.57;;;15.90;;
2386;SDS011;49473;50.772;8.768;2024-03-08T10:35:58;16.70;;;15.20;;
2386;SDS011;49473;50.772;8.768;2024-03-08T10:38:25;17.30;;;15.60;;
2386;SDS011;49473;50.772;8.768;2024-03-08T10:40:58;15.33;;;13.83;;
2386;SDS011;49473;50.772;8.768;2024-03-08T10:43:26;14.50;;;13.20;;
2386;SDS011;49473;50.772;8.768;2024-03-08T10:46:04;16.10;;;14.70;;
2386;SDS011;49473;50.772;8.768;2024-03-08T10:48:41;16.50;;;15.00;;
2386;SDS011;49473;50.772;8.768;2024-03-08T10:51:11;17.27;;;15.57;;
2386;SDS011;49473;50.772;8.768;2024-03-08T10:53:38;16.00;;;14.50;;
2386;SDS011;49473;50.772;8.768;2024-03-08T10:56:07;16.87;;;15.37;;
2386;SDS011;49473;50.772;8.768;2024-03-08T10:58:35;14.70;;;13.40;;
2386;SDS011;49473;50.772;8.768;2024-03-08T11:01:03;16.23;;;14.73;;
2386;SDS011;49473;50.772;8.768;2024-03-08T11:03:44;14.63;;;13.33;;
2386;SDS011;49473;50.772;8.768;2024-03-08T11:06:13;16.77;;;15.17;;
2386;SDS011;49473;50.772;8.768;2024-03-08T11:08:43;16.13;;;14.63;;
2386;SDS011;49473;50.772;8.768;2024-03-08T11:11:27;15.80;;;14.40;;
2386;SDS011;49473;50.772;8.768;2024-03-08T11:13:59;16.47;;;14.87;;
2386;SDS011;49473;50.772;8.768;2024-03-08T11:16:37;16.70;;;15.10;;
2386;SDS011;49473;50.772;8.768;2024-03-08T11:19:06;16.40;;;14.87;;
2386;SDS011;49473;50.772;8.768;2024-03-08T11:21:57;16.60;;;15.00;;
2386;SDS011;49473;50.772;8.768;2024-03-08T11:24:24;18.37;;;16.57;;
2386;SDS011;49473;50.772;8.768;2024-03-08T11:26:55;16.17;;;14.53;;
2386;SDS011;49473;50.772;8.768;2024-03-08T11:29:34;15.67;;;14.17;;
2386;SDS011;49473;50.772;8.768;2024-03-08T11:32:07;16.13;;;14.53;;
2386;SDS011;49473;50.772;8.768;2024-03-08T11:34:35;16.63;;;15.03;;
2386;SDS011;49473;50.772;8.768;2024-03-08T11:37:03;16.27;;;14.83;;
2386;SDS011;49473;50.772;8.768;2024-03-08T11:39:31;15.33;;;13.97;;
2386;SDS011;49473;50.772;8.768;2024-03-08T11:41:59;16.60;;;15.10;;
2386;SDS011;49473;50.772;8.768;2024-03-08T11:44:26;14.83;;;13.53;;
2386;SDS011;49473;50.772;8.768;2024-03-08T11:46:53;15.47;;;14.07;;
2386;SDS011;49473;50.772;8.768;2024-03-08T11:49:20;15.40;;;14.00;;
2386;SDS011;49473;50.772;8.768;2024-03-08T11:51:50;16.23;;;14.63;;
2386;SDS011;49473;50.772;8.768;2024-03-08T11:54:18;15.77;;;14.37;;
2386;SDS011;49473;50.772;8.768;2024-03-08T11:56:45;15.40;;;14.10;;
2386;SDS011;49473;50.772;8.768;2024-03-08T11:59:14;14.53;;;13.23;;
2386;SDS011;49473;50.772;8.768;2024-03-08T12:01:42;15.00;;;13.60;;
2386;SDS011;49473;50.772;8.768;2024-03-08T12:04:11;14.47;;;13.00;;
2386;SDS011;49473;50.772;8.768;2024-03-08T12:06:39;13.80;;;12.60;;
2386;SDS011;49473;50.772;8.768;2024-03-08T12:09:09;15.03;;;13.63;;
2386;SDS011;49473;50.772;8.768;2024-03-08T12:11:38;14.40;;;13.13;;
2386;SDS011;49473;50.772;8.768;2024-03-08T12:14:05;13.70;;;12.50;;
2386;SDS011;49473;50.772;8.768;2024-03-08T12:16:34;14.00;;;12.67;;
2386;SDS011;49473;50.772;8.768;2024-03-08T12:19:02;14.40;;;13.10;;
2386;SDS011;49473;50.772;8.768;2024-03-08T12:21:31;13.53;;;12.33;;
2386;SDS011;49473;50.772;8.768;2024-03-08T12:24:03;13.57;;;12.17;;
2386;SDS011;49473;50.772;8.768;2024-03-08T12:26:33;14.60;;;13.20;;
2386;SDS011;49473;50.772;8.768;2024-03-08T12:29:17;13.60;;;12.40;;
2386;SDS011;49473;50.772;8.768;2024-03-08T12:31:46;13.40;;;12.10;;
2386;SDS011;49473;50.772;8.768;2024-03-08T12:34:15;13.33;;;12.13;;
2386;SDS011;49473;50.772;8.768;2024-03-08T12:36:45;13.43;;;12.00;;
2386;SDS011;49473;50.772;8.768;2024-03-08T12:39:15;14.40;;;13.10;;
2386;SDS011;49473;50.772;8.768;2024-03-08T12:41:47;13.40;;;12.13;;
2386;SDS011;49473;50.772;8.768;2024-03-08T12:44:14;12.70;;;11.60;;
2386;SDS011;49473;50.772;8.768;2024-03-08T12:46:40;12.53;;;11.30;;
2386;SDS011;49473;50.772;8.768;2024-03-08T12:49:11;13.30;;;12.00;;
2386;SDS011;49473;50.772;8.768;2024-03-08T12:51:38;12.10;;;10.90;;
2386;SDS011;49473;50.772;8.768;2024-03-08T12:54:06;11.57;;;10.47;;
2386;SDS011;49473;50.772;8.768;2024-03-08T12:56:33;12.47;;;11.37;;
2386;SDS011;49473;50.772;8.768;2024-03-08T12:59:02;11.87;;;10.77;;
2386;SDS011;49473;50.772;8.768;2024-03-08T13:01:30;13.23;;;12.00;;
2386;SDS011;49473;50.772;8.768;2024-03-08T13:03:58;12.10;;;11.00;;
2386;SDS011;49473;50.772;8.768;2024-03-08T13:06:26;12.27;;;11.20;;
2386;SDS011;49473;50.772;8.768;2024-03-08T13:08:53;13.00;;;11.73;;
2386;SDS011;49473;50.772;8.768;2024-03-08T13:11:21;12.53;;;11.33;;
2386;SDS011;49473;50.772;8.768;2024-03-08T13:13:48;12.47;;;11.33;;
2386;SDS011;49473;50.772;8.768;2024-03-08T13:16:15;11.17;;;10.07;;
2386;SDS011;49473;50.772;8.768;2024-03-08T13:18:42;11.73;;;10.73;;
2386;SDS011;49473;50.772;8.768;2024-03-08T13:21:09;11.73;;;10.63;;
2386;SDS011;49473;50.772;8.768;2024-03-08T13:23:40;11.07;;;10.13;;
2386;SDS011;49473;50.772;8.768;2024-03-08T13:26:11;12.00;;;10.90;;
2386;SDS011;49473;50.772;8.768;2024-03-08T13:28:40;10.90;;;9.90;;
2386;SDS011;49473;50.772;8.768;2024-03-08T13:31:07;10.67;;;9.67;;
2386;SDS011;49473;50.772;8.768;2024-03-08T13:33:35;12.00;;;10.80;;
2386;SDS011;49473;50.772;8.768;2024-03-08T13:36:04;11.40;;;10.30;;
2386;SDS011;49473;50.772;8.768;2024-03-08T13:38:31;13.27;;;11.87;;
2386;SDS011;49473;50.772;8.768;2024-03-08T13:41:00;11.30;;;10.20;;
2386;SDS011;49473;50.772;8.768;2024-03-08T13:43:27;11.57;;;10.43;;
2386;SDS011;49473;50.772;8.768;2024-03-08T13:45:54;12.70;;;11.33;;
2386;SDS011;49473;50.772;8.768;2024-03-08T13:48:21;12.67;;;10.77;;
2386;SDS011;49473;50.772;8.768;2024-03-08T13:50:48;12.93;;;11.30;;
2386;SDS011;49473;50.772;8.768;2024-03-08T13:53:16;11.80;;;10.70;;
2386;SDS011;49473;50.772;8.768;2024-03-08T13:55:43;11.17;;;10.07;;
2386;SDS011;49473;50.772;8.768;2024-03-08T13:58:11;11.73;;;10.53;;
2386;SDS011;49473;50.772;8.768;2024-03-08T14:00:39;12.60;;;11.37;;
2386;SDS011;49473;50.772;8.768;2024-03-08T14:03:08;13.90;;;11.10;;
2386;SDS011;49473;50.772;8.768;2024-03-08T14:05:38;12.70;;;11.40;;
2386;SDS011;49473;50.772;8.768;2024-03-08T14:08:05;11.73;;;10.53;;
2386;SDS011;49473;50.772;8.768;2024-03-08T14:10:32;13.03;;;11.83;;
2386;SDS011;49473;50.772;8.768;2024-03-08T14:12:59;12.20;;;10.97;;
2386;SDS011;49473;50.772;8.768;2024-03-08T14:15:29;12.27;;;10.97;;
2386;SDS011;49473;50.772;8.768;2024-03-08T14:17:56;12.97;;;11.53;;
2386;SDS011;49473;50.772;8.768;2024-03-08T14:20:23;13.53;;;11.60;;
2386;SDS011;49473;50.772;8.768;2024-03-08T14:22:50;12.40;;;11.10;;
2386;SDS011;49473;50.772;8.768;2024-03-08T14:25:17;13.40;;;12.00;;
2386;SDS011;49473;50.772;8.768;2024-03-08T14:27:44;13.40;;;12.07;;
2386;SDS011;49473;50.772;8.768;2024-03-08T14:30:12;13.93;;;12.07;;
2386;SDS011;49473;50.772;8.768;2024-03-08T14:32:44;12.83;;;11.57;;
2386;SDS011;49473;50.772;8.768;2024-03-08T14:35:12;12.57;;;11.27;;
2386;SDS011;49473;50.772;8.768;2024-03-08T14:37:40;11.90;;;10.67;;
2386;SDS011;49473;50.772;8.768;2024-03-08T14:40:08;12.97;;;11.67;;